Time;durP1;ratioP1;P1;durP2;ratioP2;P2;SDS_P1;SDS_P2;PMS_P1;PMS_P2;Temp;Humidity;BMP_temperature;BMP_pressure;BME280_temperature;BME280_humidity;BME280_pressure;Samples;Min_cycle;Max_cycle;Signal;HPM_P1;HPM_P2
2024/03/21 00:02:21;;;;;;;64.18;40.78;;;10.30;99.90;;;;;;5096137;28;20032;-69
2024/03/21 00:04:47;;;;;;;56.08;38.40;;;10.20;99.90;;;;;;5096195;28;20024;-68
2024/03/21 00:07:12;;;;;;;56.42;38.22;;;10.20;99.90;;;;;;5095877;28;20016;-68
2024/03/21 00:09:38;;;;;;;57.20;37.05;;;10.10;99.90;;;;;;5096089;28;20432;-68
2024/03/21 00:12:06;;;;;;;60.10;40.10;;;10.10;99.90;;;;;;5095848;28;20055;-69
2024/03/21 00:14:32;;;;;;;58.88;41.05;;;10.10;99.90;;;;;;5096069;28;20024;-69
2024/03/21 00:16:57;;;;;;;59.45;40.38;;;10.10;99.90;;;;;;5096211;28;20123;-68
2024/03/21 00:19:23;;;;;;;56.70;40.35;;;10.00;99.90;;;;;;5096070;28;20036;-69
2024/03/21 00:21:50;;;;;;;55.60;38.30;;;10.00;99.90;;;;;;5095530;28;20026;-68
2024/03/21 00:24:16;;;;;;;61.55;42.05;;;10.00;99.90;;;;;;5096034;28;20054;-68
2024/03/21 00:26:42;;;;;;;61.22;42.35;;;9.90;99.90;;;;;;5095820;28;20028;-69
2024/03/21 00:29:08;;;;;;;56.35;39.80;;;9.90;99.90;;;;;;5095610;28;20020;-68
2024/03/21 00:31:34;;;;;;;54.05;37.45;;;9.90;99.90;;;;;;5095752;28;20035;-69
2024/03/21 00:34:00;;;;;;;49.95;33.90;;;9.90;99.90;;;;;;5095721;28;20028;-68
2024/03/21 00:36:26;;;;;;;48.97;35.22;;;9.90;99.90;;;;;;5095581;28;20024;-69
2024/03/21 00:38:53;;;;;;;47.05;32.30;;;10.00;99.90;;;;;;5095557;28;20414;-69
2024/03/21 00:41:20;;;;;;;54.83;35.63;;;10.00;99.90;;;;;;5095134;28;20050;-69
2024/03/21 00:43:46;;;;;;;46.50;31.13;;;10.00;99.90;;;;;;5095687;28;20026;-68
2024/03/21 00:46:12;;;;;;;43.60;31.38;;;10.00;99.90;;;;;;5095418;28;20017;-68
2024/03/21 00:48:38;;;;;;;48.72;33.80;;;10.00;99.90;;;;;;5095434;28;20023;-69
2024/03/21 00:51:03;;;;;;;46.33;33.15;;;10.00;99.90;;;;;;5094989;28;20474;-68
2024/03/21 00:53:29;;;;;;;45.35;31.20;;;10.00;99.90;;;;;;5095373;28;20073;-69
2024/03/21 00:55:55;;;;;;;42.83;31.33;;;9.90;99.90;;;;;;5094995;28;20028;-68
2024/03/21 00:58:21;;;;;;;45.58;30.20;;;9.90;99.90;;;;;;5094970;28;20428;-68
2024/03/21 01:00:46;;;;;;;51.33;34.67;;;9.90;99.90;;;;;;5094800;28;20043;-68
2024/03/21 01:03:12;;;;;;;54.30;35.03;;;9.90;99.90;;;;;;5095136;28;20077;-69
2024/03/21 01:05:38;;;;;;;48.08;32.65;;;9.90;99.90;;;;;;5095241;28;20012;-69
2024/03/21 01:08:04;;;;;;;47.90;33.65;;;9.90;99.90;;;;;;5095251;28;20035;-68
2024/03/21 01:10:29;;;;;;;55.65;34.33;;;9.90;99.90;;;;;;5095049;28;20024;-68
2024/03/21 01:12:55;;;;;;;48.83;32.85;;;9.90;99.90;;;;;;5094865;28;20031;-69
2024/03/21 01:15:20;;;;;;;47.05;32.08;;;9.90;99.90;;;;;;5095008;28;20114;-69
2024/03/21 01:17:46;;;;;;;49.25;32.65;;;9.90;99.90;;;;;;5094785;28;20076;-69
2024/03/21 01:20:12;;;;;;;48.45;33.13;;;10.00;99.90;;;;;;5094757;28;20481;-68
2024/03/21 01:22:37;;;;;;;50.45;33.50;;;9.90;99.90;;;;;;5094625;28;20028;-68
2024/03/21 01:25:04;;;;;;;55.33;34.42;;;9.90;99.90;;;;;;5094697;28;20032;-68
2024/03/21 01:27:30;;;;;;;49.40;32.08;;;9.90;99.90;;;;;;5095003;28;20073;-68
2024/03/21 01:29:56;;;;;;;47.53;31.05;;;10.00;99.90;;;;;;5094544;28;20024;-68
2024/03/21 01:32:22;;;;;;;44.25;30.13;;;10.00;99.90;;;;;;5094695;28;20032;-68
2024/03/21 01:34:47;;;;;;;39.88;27.15;;;10.00;99.90;;;;;;5094260;28;20028;-68
2024/03/21 01:37:13;;;;;;;41.30;27.98;;;10.00;99.90;;;;;;5094430;28;20024;-68
2024/03/21 01:39:39;;;;;;;43.90;27.95;;;10.00;99.90;;;;;;5094299;28;20024;-68
2024/03/21 01:42:05;;;;;;;39.70;25.73;;;9.90;99.90;;;;;;5094411;28;20028;-68
2024/03/21 01:44:30;;;;;;;35.28;24.40;;;9.90;99.90;;;;;;5094293;28;20050;-68
2024/03/21 01:46:56;;;;;;;37.97;25.30;;;9.90;99.90;;;;;;5094394;28;20123;-69
2024/03/21 01:49:22;;;;;;;44.45;27.08;;;9.90;99.90;;;;;;5094197;28;20394;-68
2024/03/21 01:51:49;;;;;;;45.50;28.33;;;9.90;99.90;;;;;;5094122;28;20063;-68
2024/03/21 01:54:15;;;;;;;48.65;28.85;;;9.90;99.90;;;;;;5094151;28;20032;-69
2024/03/21 01:56:42;;;;;;;45.58;29.63;;;9.90;99.90;;;;;;5093948;28;20024;-68
2024/03/21 01:59:07;;;;;;;43.30;28.23;;;10.00;99.90;;;;;;5094024;28;20035;-69
2024/03/21 02:01:33;;;;;;;43.10;27.33;;;10.20;99.90;;;;;;5093959;28;20028;-68
2024/03/21 02:04:00;;;;;;;39.33;26.35;;;10.30;99.90;;;;;;5094304;28;20390;-68
2024/03/21 02:06:28;;;;;;;37.92;23.45;;;;;;;;;;5093134;28;20052;-68
2024/03/21 02:08:54;;;;;;;38.70;24.70;;;10.30;99.90;;;;;;5093615;28;20134;-68
2024/03/21 02:11:20;;;;;;;37.55;25.70;;;10.30;99.90;;;;;;5093786;28;20056;-68
2024/03/21 02:13:46;;;;;;;38.70;25.15;;;10.40;99.90;;;;;;5093729;28;20032;-68
2024/03/21 02:16:13;;;;;;;44.90;26.05;;;10.40;99.90;;;;;;5093725;28;20028;-68
2024/03/21 02:18:38;;;;;;;40.97;24.75;;;10.40;99.90;;;;;;5093982;28;20119;-68
2024/03/21 02:21:06;;;;;;;43.63;29.20;;;10.50;99.90;;;;;;5093759;28;20119;-69
2024/03/21 02:23:33;;;;;;;48.25;29.35;;;10.50;99.90;;;;;;5093768;28;20478;-68
2024/03/21 02:25:59;;;;;;;40.47;27.23;;;10.50;99.90;;;;;;5093959;28;20366;-68
2024/03/21 02:28:25;;;;;;;46.63;28.40;;;10.50;99.90;;;;;;5093537;28;20017;-68
2024/03/21 02:30:52;;;;;;;42.30;28.13;;;10.60;99.90;;;;;;5093530;28;20062;-68
2024/03/21 02:33:18;;;;;;;39.60;27.20;;;10.60;99.90;;;;;;5093656;28;20028;-68
2024/03/21 02:35:44;;;;;;;43.75;28.70;;;10.60;99.90;;;;;;5093431;28;20496;-68
2024/03/21 02:38:10;;;;;;;45.08;29.70;;;10.60;99.90;;;;;;5093502;28;20024;-68
2024/03/21 02:40:35;;;;;;;41.92;28.08;;;10.60;99.90;;;;;;5093335;28;20439;-68
2024/03/21 02:43:01;;;;;;;39.75;28.02;;;10.60;99.90;;;;;;5093362;28;20039;-68
2024/03/21 02:45:26;;;;;;;52.00;34.53;;;10.70;99.90;;;;;;5093506;28;20489;-68
2024/03/21 02:47:52;;;;;;;71.03;44.80;;;10.70;99.90;;;;;;5093306;28;20028;-68
2024/03/21 02:50:17;;;;;;;83.90;50.70;;;10.90;99.90;;;;;;5093286;28;20020;-68
2024/03/21 02:52:43;;;;;;;79.60;50.28;;;11.10;99.90;;;;;;5093309;28;20028;-68
2024/03/21 02:55:08;;;;;;;77.22;47.45;;;11.10;99.90;;;;;;5093263;28;20035;-68
2024/03/21 02:57:34;;;;;;;71.63;44.83;;;11.20;99.90;;;;;;5093380;28;20071;-68
2024/03/21 02:59:59;;;;;;;74.70;45.88;;;11.30;99.90;;;;;;5093526;28;20103;-69
2024/03/21 03:02:25;;;;;;;79.47;47.28;;;11.30;99.90;;;;;;5093109;28;20028;-68
2024/03/21 03:04:51;;;;;;;78.18;48.65;;;11.40;99.90;;;;;;5093123;28;20505;-68
2024/03/21 03:07:16;;;;;;;74.82;48.03;;;11.40;99.90;;;;;;5093306;28;20435;-68
2024/03/21 03:09:42;;;;;;;78.68;48.10;;;11.50;99.90;;;;;;5093366;28;20054;-68
2024/03/21 03:12:08;;;;;;;74.03;47.35;;;11.50;99.90;;;;;;5093350;28;20473;-68
2024/03/21 03:14:33;;;;;;;76.28;46.92;;;11.50;99.90;;;;;;5093162;28;20070;-68
2024/03/21 03:16:59;;;;;;;74.15;46.40;;;11.50;99.90;;;;;;5093302;28;20028;-68
2024/03/21 03:19:24;;;;;;;76.13;46.63;;;11.50;99.90;;;;;;5096383;28;20028;-68
2024/03/21 03:21:50;;;;;;;79.22;47.13;;;11.60;99.90;;;;;;5096942;28;20488;-68
2024/03/21 03:24:15;;;;;;;73.20;46.63;;;11.50;99.90;;;;;;5097016;28;20020;-68
2024/03/21 03:26:41;;;;;;;79.50;47.47;;;11.60;99.90;;;;;;5096702;28;20470;-68
2024/03/21 03:29:06;;;;;;;73.80;46.15;;;11.60;99.90;;;;;;5096928;28;20039;-69
2024/03/21 03:31:32;;;;;;;72.47;47.45;;;11.60;99.90;;;;;;5096916;28;20031;-68
2024/03/21 03:36:44;;;;;;;79.20;47.72;;;11.60;99.90;;;;;;5096589;28;20041;-68
2024/03/21 03:39:09;;;;;;;74.07;44.78;;;11.60;99.90;;;;;;5096559;28;20116;-68
2024/03/21 03:41:35;;;;;;;77.28;46.42;;;11.60;99.90;;;;;;5096433;28;20123;-69
2024/03/21 03:44:00;;;;;;;73.63;45.55;;;11.60;99.90;;;;;;5096734;28;20037;-68
2024/03/21 03:46:26;;;;;;;77.90;46.65;;;11.50;99.90;;;;;;5096766;28;20020;-68
2024/03/21 03:48:51;;;;;;;73.88;46.72;;;11.50;99.90;;;;;;5096627;28;20031;-68
2024/03/21 03:51:17;;;;;;;73.28;47.55;;;11.50;99.90;;;;;;5096641;28;20089;-68
2024/03/21 03:53:43;;;;;;;69.28;45.40;;;11.50;99.90;;;;;;5096493;28;20032;-68
2024/03/21 03:56:08;;;;;;;68.80;45.28;;;11.40;99.90;;;;;;5096088;28;20039;-68
2024/03/21 03:58:34;;;;;;;78.32;46.72;;;11.30;99.90;;;;;;5096474;28;20028;-68
2024/03/21 04:01:00;;;;;;;78.47;46.97;;;11.30;99.90;;;;;;5096369;28;20055;-68
2024/03/21 04:03:28;;;;;;;84.13;49.10;;;11.30;99.90;;;;;;5096403;28;20474;-68
2024/03/21 04:06:04;;;;;;;81.13;47.90;;;11.30;99.90;;;;;;5096226;28;20062;-68
2024/03/21 04:08:30;;;;;;;78.63;47.95;;;11.30;99.90;;;;;;5095995;28;20041;-68
2024/03/21 04:10:57;;;;;;;76.88;47.20;;;11.30;99.90;;;;;;5096318;28;20028;-67
2024/03/21 04:13:23;;;;;;;77.57;47.63;;;11.20;99.90;;;;;;5096321;28;20178;-68
2024/03/21 04:15:53;;;;;;;78.38;47.60;;;11.20;99.90;;;;;;5096044;28;20103;-69
2024/03/21 04:18:19;;;;;;;75.60;47.25;;;11.20;99.90;;;;;;5096184;28;20097;-68
2024/03/21 04:20:45;;;;;;;77.28;46.53;;;11.20;99.90;;;;;;5095930;28;20024;-68
2024/03/21 04:23:11;;;;;;;79.60;48.10;;;11.30;99.90;;;;;;5095950;28;20024;-69
2024/03/21 04:25:36;;;;;;;81.13;49.38;;;11.30;99.90;;;;;;5095769;28;20391;-68
2024/03/21 04:28:02;;;;;;;74.60;45.72;;;11.30;99.90;;;;;;5095937;28;20062;-69
2024/03/21 04:30:27;;;;;;;72.47;44.95;;;11.30;99.90;;;;;;5095063;28;20025;-68
2024/03/21 04:32:53;;;;;;;74.68;45.30;;;11.30;99.90;;;;;;5095676;28;20047;-68
2024/03/21 04:35:18;;;;;;;73.28;46.58;;;11.20;99.90;;;;;;5095642;28;20035;-68
2024/03/21 04:37:46;;;;;;;78.15;46.97;;;11.20;99.90;;;;;;5095658;28;20119;-68
2024/03/21 04:40:11;;;;;;;73.60;45.03;;;11.20;99.90;;;;;;5095559;28;20043;-68
2024/03/21 04:42:37;;;;;;;78.97;48.22;;;11.10;99.90;;;;;;5095452;28;20040;-68
2024/03/21 04:45:03;;;;;;;74.30;47.10;;;11.20;99.90;;;;;;5095445;28;20099;-68
2024/03/21 04:47:29;;;;;;;90.22;52.58;;;11.20;99.90;;;;;;5095552;28;20031;-68
2024/03/21 04:49:55;;;;;;;87.38;50.08;;;11.20;99.90;;;;;;5095131;28;20051;-69
2024/03/21 04:52:21;;;;;;;81.43;47.50;;;11.10;99.90;;;;;;5095328;28;20028;-68
2024/03/21 04:54:49;;;;;;;84.75;49.75;;;11.10;99.90;;;;;;5095331;28;20024;-68
2024/03/21 04:57:15;;;;;;;74.20;46.65;;;11.10;99.90;;;;;;5095319;28;20028;-68
2024/03/21 04:59:40;;;;;;;82.93;49.05;;;11.00;99.90;;;;;;5095271;28;20028;-68
2024/03/21 05:02:06;;;;;;;85.22;47.95;;;11.00;99.90;;;;;;5094929;28;20059;-69
2024/03/21 05:04:31;;;;;;;87.40;49.75;;;11.00;99.90;;;;;;5095274;28;20111;-68
2024/03/21 05:06:57;;;;;;;88.00;49.03;;;10.90;99.90;;;;;;5095168;28;20031;-68
2024/03/21 05:09:22;;;;;;;85.65;49.03;;;10.80;99.90;;;;;;5095003;28;20398;-68
2024/03/21 05:11:48;;;;;;;84.32;48.95;;;10.80;99.90;;;;;;5095106;28;20043;-68
2024/03/21 05:14:13;;;;;;;85.13;49.80;;;10.70;99.90;;;;;;5094696;28;20053;-68
2024/03/21 05:16:39;;;;;;;84.68;49.08;;;10.70;99.90;;;;;;5094915;28;20393;-69
2024/03/21 05:19:04;;;;;;;83.00;48.65;;;10.60;99.90;;;;;;5094547;28;20148;-68
2024/03/21 05:21:30;;;;;;;89.18;46.53;;;10.60;99.90;;;;;;5094724;28;20085;-68
2024/03/21 05:23:55;;;;;;;81.10;42.95;;;10.60;99.90;;;;;;5094694;28;20028;-68
2024/03/21 05:26:21;;;;;;;78.53;41.22;;;10.60;99.90;;;;;;5094824;28;20470;-69
2024/03/21 05:28:46;;;;;;;74.50;38.78;;;10.70;99.90;;;;;;5094655;28;20065;-68
2024/03/21 05:31:21;;;;;;;71.03;38.63;;;10.70;99.90;;;;;;5094790;28;20036;-69
2024/03/21 05:33:47;;;;;;;74.97;38.35;;;10.70;99.90;;;;;;5094612;28;20028;-68
2024/03/21 05:36:14;;;;;;;68.15;36.50;;;10.70;99.90;;;;;;5094429;28;20024;-68
2024/03/21 05:38:40;;;;;;;72.20;36.97;;;10.70;99.90;;;;;;5094659;28;20496;-68
2024/03/21 05:41:06;;;;;;;69.25;34.53;;;10.70;99.90;;;;;;5093640;28;20048;-68
2024/03/21 05:43:32;;;;;;;68.45;34.00;;;10.70;99.90;;;;;;5094307;28;20054;-68
2024/03/21 05:45:58;;;;;;;64.68;35.30;;;10.60;99.90;;;;;;5094261;28;20073;-68
2024/03/21 05:48:23;;;;;;;61.72;34.67;;;10.60;99.90;;;;;;5094323;28;20547;-68
2024/03/21 05:50:49;;;;;;;60.22;33.88;;;10.50;99.90;;;;;;5094322;28;20493;-69
2024/03/21 05:53:14;;;;;;;65.32;36.25;;;10.40;99.90;;;;;;5094050;28;20073;-68
2024/03/21 05:55:40;;;;;;;65.75;36.38;;;10.40;99.90;;;;;;5094222;28;20028;-68
2024/03/21 05:58:05;;;;;;;66.03;37.60;;;10.40;99.90;;;;;;5094155;28;20024;-68
2024/03/21 06:00:31;;;;;;;72.75;36.53;;;10.40;99.90;;;;;;5094090;28;20028;-68
2024/03/21 06:02:56;;;;;;;67.40;38.42;;;10.50;99.90;;;;;;5093885;28;20517;-68
2024/03/21 06:05:22;;;;;;;74.20;38.35;;;10.50;99.90;;;;;;5093956;28;20473;-68
2024/03/21 06:07:47;;;;;;;70.93;37.70;;;10.60;99.90;;;;;;5094053;28;20028;-68
2024/03/21 06:10:13;;;;;;;62.47;35.20;;;10.50;99.90;;;;;;5093661;28;20051;-68
2024/03/21 06:12:41;;;;;;;67.32;37.30;;;10.60;99.90;;;;;;5093895;28;20066;-68
2024/03/21 06:15:07;;;;;;;67.30;36.58;;;10.70;99.90;;;;;;5093886;28;20039;-69
2024/03/21 06:17:32;;;;;;;62.40;33.67;;;10.90;99.90;;;;;;5093943;28;20036;-69
2024/03/21 06:19:58;;;;;;;60.92;32.65;;;11.10;99.90;;;;;;5093805;28;20096;-68
2024/03/21 06:22:24;;;;;;;58.08;30.00;;;11.30;99.90;;;;;;5093626;28;20035;-68
2024/03/21 06:24:49;;;;;;;44.25;26.45;;;11.50;99.90;;;;;;5093588;28;20473;-68
2024/03/21 06:27:15;;;;;;;49.80;28.65;;;11.70;99.90;;;;;;5093829;28;20024;-69
2024/03/21 06:29:40;;;;;;;44.60;26.05;;;11.60;99.90;;;;;;5093593;28;20385;-69
2024/03/21 06:32:06;;;;;;;44.45;25.67;;;11.60;99.90;;;;;;5093620;28;20028;-68
2024/03/21 06:34:32;;;;;;;42.38;25.30;;;11.80;99.90;;;;;;5093589;28;20028;-69
2024/03/21 06:36:57;;;;;;;41.33;23.95;;;11.80;99.90;;;;;;5093291;28;20036;-69
2024/03/21 06:39:23;;;;;;;40.47;23.05;;;11.70;99.90;;;;;;5093592;28;20032;-68
2024/03/21 06:41:49;;;;;;;39.25;23.58;;;11.70;99.90;;;;;;5093163;28;20109;-69
2024/03/21 06:44:14;;;;;;;40.35;22.85;;;11.60;99.90;;;;;;5093647;28;20028;-68
2024/03/21 06:46:40;;;;;;;38.53;22.48;;;11.50;99.90;;;;;;5093338;28;20466;-69
2024/03/21 06:49:07;;;;;;;36.08;22.27;;;11.40;99.90;;;;;;5093172;28;20017;-70
2024/03/21 06:51:32;;;;;;;40.58;23.05;;;11.40;99.90;;;;;;5093303;28;20024;-68
2024/03/21 06:53:58;;;;;;;40.05;23.42;;;11.40;99.90;;;;;;5092961;28;20032;-68
2024/03/21 06:56:23;;;;;;;40.58;22.95;;;11.40;99.90;;;;;;5093404;28;20032;-68
2024/03/21 06:58:49;;;;;;;44.90;23.50;;;11.30;99.90;;;;;;5093296;28;20035;-68
2024/03/21 07:01:16;;;;;;;39.05;23.15;;;11.30;99.90;;;;;;5092880;28;20075;-69
2024/03/21 07:03:42;;;;;;;38.78;23.30;;;11.30;99.90;;;;;;5093031;28;20036;-68
2024/03/21 07:06:08;;;;;;;41.47;22.77;;;11.30;99.90;;;;;;5093390;28;20095;-69
2024/03/21 07:08:33;;;;;;;40.35;21.75;;;11.30;99.90;;;;;;5093438;28;20024;-69
2024/03/21 07:10:59;;;;;;;38.45;23.58;;;11.40;99.90;;;;;;5092877;28;20024;-69
2024/03/21 07:13:24;;;;;;;35.97;22.33;;;11.40;99.90;;;;;;5093034;28;20359;-68
2024/03/21 07:15:50;;;;;;;36.60;22.30;;;11.60;99.90;;;;;;5093168;28;20035;-69
2024/03/21 07:18:15;;;;;;;39.58;23.42;;;11.60;99.90;;;;;;5093206;28;20029;-69
2024/03/21 07:20:41;;;;;;;36.88;21.27;;;11.60;99.90;;;;;;5092978;28;20027;-68
2024/03/21 07:23:07;;;;;;;34.15;20.10;;;11.60;99.90;;;;;;5092987;28;20025;-69
2024/03/21 07:25:35;;;;;;;35.10;19.88;;;11.60;99.90;;;;;;5093403;28;20024;-68
2024/03/21 07:28:02;;;;;;;34.50;19.92;;;11.50;99.90;;;;;;5092550;28;20025;-68
2024/03/21 07:30:28;;;;;;;34.22;20.30;;;11.70;99.90;;;;;;5092848;28;20050;-68
2024/03/21 07:32:54;;;;;;;30.25;19.15;;;11.90;99.90;;;;;;5092865;28;20107;-68
2024/03/21 07:35:19;;;;;;;27.73;17.02;;;12.10;99.90;;;;;;5092716;28;20085;-69
2024/03/21 07:37:45;;;;;;;21.02;13.50;;;12.00;99.20;;;;;;5093028;28;20027;-69
2024/03/21 07:40:10;;;;;;;20.58;13.07;;;11.90;77.50;;;;;;5092736;28;20044;-68
2024/03/21 07:42:36;;;;;;;20.33;11.98;;;11.70;73.60;;;;;;5092730;28;20093;-68
2024/03/21 07:45:03;;;;;;;19.48;12.05;;;12.60;36.50;;;;;;5092720;28;20029;-68
2024/03/21 07:47:29;;;;;;;16.90;10.80;;;13.10;1.00;;;;;;5092639;28;20028;-69
2024/03/21 07:49:54;;;;;;;16.27;10.10;;;13.00;1.00;;;;;;5092758;28;20027;-68
2024/03/21 07:52:21;;;;;;;15.45;9.18;;;12.80;1.00;;;;;;5092804;28;20105;-68
2024/03/21 07:54:46;;;;;;;15.18;8.88;;;12.50;1.00;;;;;;5092524;28;20020;-68
2024/03/21 07:57:12;;;;;;;14.95;9.90;;;12.30;1.00;;;;;;5092400;28;20024;-68
2024/03/21 07:59:38;;;;;;;13.30;9.05;;;12.10;1.00;;;;;;5092867;28;20082;-68
2024/03/21 08:02:04;;;;;;;14.48;9.45;;;12.00;1.00;;;;;;5092583;28;20111;-68
2024/03/21 08:04:29;;;;;;;15.00;9.13;;;12.10;1.00;;;;;;5092772;28;20431;-68
2024/03/21 08:06:57;;;;;;;13.68;9.30;;;12.40;1.00;;;;;;5096182;28;20115;-67
2024/03/21 08:09:23;;;;;;;14.68;8.88;;;12.60;1.00;;;;;;5096305;28;20415;-67
2024/03/21 08:11:49;;;;;;;13.88;8.70;;;12.70;1.00;;;;;;5096154;28;20103;-68
2024/03/21 08:14:15;;;;;;;15.40;8.93;;;12.60;1.00;;;;;;5096092;28;20116;-68
2024/03/21 08:16:40;;;;;;;13.38;8.85;;;12.20;1.00;;;;;;5095974;28;20031;-67
2024/03/21 08:19:07;;;;;;;11.52;7.63;;;12.10;1.00;;;;;;5095891;28;20036;-67
2024/03/21 08:21:32;;;;;;;11.27;7.93;;;11.90;1.00;;;;;;5095896;28;20054;-68
2024/03/21 08:23:58;;;;;;;12.88;8.57;;;11.90;1.00;;;;;;5095750;28;20028;-68
2024/03/21 08:26:23;;;;;;;12.30;8.93;;;11.90;1.00;;;;;;5095982;28;20125;-68
2024/03/21 08:28:49;;;;;;;12.40;8.68;;;11.90;1.00;;;;;;5095940;28;20435;-68
2024/03/21 08:31:14;;;;;;;14.05;8.30;;;11.70;1.00;;;;;;5095784;28;20057;-68
2024/03/21 08:33:40;;;;;;;15.50;8.85;;;11.70;1.00;;;;;;5095798;28;20020;-68
2024/03/21 08:36:06;;;;;;;11.32;8.50;;;11.70;1.00;;;;;;5095694;28;20529;-68
2024/03/21 08:38:33;;;;;;;12.15;8.13;;;11.40;1.00;;;;;;5095254;28;20068;-68
2024/03/21 08:40:58;;;;;;;11.38;7.80;;;11.20;1.00;;;;;;5095201;28;20123;-68
2024/03/21 08:43:24;;;;;;;11.57;8.00;;;11.10;4.80;;;;;;5094199;28;20091;-68
2024/03/21 08:45:53;;;;;;;11.23;7.82;;;11.40;1.00;;;;;;5095185;28;20069;-68
2024/03/21 08:48:18;;;;;;;12.38;8.35;;;11.60;1.00;;;;;;5095278;28;20595;-68
2024/03/21 08:50:47;;;;;;;10.65;7.82;;;11.60;1.00;;;;;;5095470;28;20107;-68
2024/03/21 08:53:14;;;;;;;11.15;8.38;;;11.50;1.00;;;;;;5095462;28;20024;-68
2024/03/21 08:55:40;;;;;;;10.73;7.55;;;11.30;1.00;;;;;;5095248;28;20482;-68
2024/03/21 08:58:06;;;;;;;9.82;7.80;;;11.40;1.00;;;;;;5095160;28;20031;-68
2024/03/21 09:00:32;;;;;;;10.95;8.15;;;11.50;1.00;;;;;;5095027;28;20482;-68
2024/03/21 09:03:00;;;;;;;10.55;7.95;;;11.50;1.00;;;;;;5095032;28;20478;-68
2024/03/21 09:05:27;;;;;;;12.52;8.15;;;11.80;1.00;;;;;;5095151;28;20401;-68
2024/03/21 09:07:53;;;;;;;10.70;8.32;;;11.90;1.00;;;;;;5095180;28;20052;-67
2024/03/21 09:10:19;;;;;;;13.70;9.38;;;11.90;1.00;;;;;;5095132;28;20028;-68
2024/03/21 09:12:45;;;;;;;14.68;9.57;;;11.70;1.00;;;;;;5094926;28;20115;-69
2024/03/21 09:15:13;;;;;;;15.65;11.02;;;11.70;1.00;;;;;;5094725;28;20073;-69
2024/03/21 09:17:39;;;;;;;15.48;9.80;;;11.70;1.00;;;;;;5095173;28;20031;-70
2024/03/21 09:20:07;;;;;;;14.50;9.52;;;11.80;1.00;;;;;;5094834;28;20024;-69
2024/03/21 09:22:33;;;;;;;14.20;9.10;;;11.70;1.00;;;;;;5094311;28;20035;-71
2024/03/21 09:24:59;;;;;;;12.45;9.27;;;11.40;1.00;;;;;;5094591;28;20032;-69
2024/03/21 09:27:24;;;;;;;13.00;9.13;;;11.20;1.00;;;;;;5094532;28;20031;-70
2024/03/21 09:29:50;;;;;;;15.75;10.50;;;11.30;1.00;;;;;;5094294;28;20052;-70
2024/03/21 09:32:16;;;;;;;14.35;9.05;;;11.40;1.00;;;;;;5094388;28;20032;-69
2024/03/21 09:34:45;;;;;;;15.40;9.25;;;11.50;1.00;;;;;;5094088;28;20024;-70
2024/03/21 09:37:10;;;;;;;10.90;8.27;;;11.40;1.00;;;;;;5094564;28;20035;-69
2024/03/21 09:39:36;;;;;;;12.77;8.80;;;11.50;1.00;;;;;;5094245;28;20390;-69
2024/03/21 09:42:02;;;;;;;13.93;9.00;;;11.60;1.00;;;;;;5094041;28;20040;-69
2024/03/21 09:44:29;;;;;;;13.63;8.77;;;11.80;1.00;;;;;;5094281;28;20428;-69
2024/03/21 09:46:55;;;;;;;12.57;9.05;;;11.50;1.00;;;;;;5094245;28;20012;-69
2024/03/21 09:49:20;;;;;;;12.65;9.20;;;11.50;1.00;;;;;;5093813;28;20473;-69
2024/03/21 09:51:46;;;;;;;15.52;8.90;;;11.60;99.90;;;;;;5094008;28;20036;-69
2024/03/21 09:54:12;;;;;;;15.25;8.93;;;11.60;1.00;;;;;;5094013;28;20032;-69
2024/03/21 09:56:38;;;;;;;11.80;8.00;;;11.50;1.00;;;;;;5094071;28;20031;-69
2024/03/21 09:59:13;;;;;;;14.98;8.82;;;11.40;1.00;;;;;;5094163;28;20081;-69
2024/03/21 10:01:38;;;;;;;11.68;8.23;;;11.70;1.00;;;;;;5093942;28;20028;-69
2024/03/21 10:04:04;;;;;;;12.57;8.15;;;11.80;1.00;;;;;;5094081;28;20450;-69
2024/03/21 10:06:30;;;;;;;14.07;7.80;;;11.90;99.90;;;;;;5093715;28;20076;-69
2024/03/21 10:08:57;;;;;;;11.15;8.02;;;11.70;99.90;;;;;;5093659;28;20119;-67
2024/03/21 10:11:22;;;;;;;13.52;8.85;;;11.30;1.00;;;;;;5093976;28;20035;-67
2024/03/21 10:13:48;;;;;;;15.07;8.80;;;11.30;1.00;;;;;;5093936;28;20036;-68
2024/03/21 10:16:16;;;;;;;15.23;9.43;;;11.20;1.00;;;;;;5093842;28;20038;-68
2024/03/21 10:18:42;;;;;;;12.55;8.07;;;11.40;1.00;;;;;;5093901;28;20036;-68
2024/03/21 10:21:16;;;;;;;13.25;8.13;;;11.40;1.00;;;;;;5093872;28;20392;-68
2024/03/21 10:23:42;;;;;;;15.80;8.68;;;11.40;1.00;;;;;;5093775;28;20101;-68
2024/03/21 10:26:14;;;;;;;15.68;8.57;;;11.20;1.00;;;;;;5093657;28;20028;-68
2024/03/21 10:28:40;;;;;;;13.95;7.85;;;11.40;1.00;;;;;;5093232;28;20034;-68
2024/03/21 10:31:12;;;;;;;13.75;7.97;;;11.60;1.00;;;;;;5093538;28;20020;-69
2024/03/21 10:33:38;;;;;;;12.10;8.15;;;11.90;1.00;;;;;;5093468;28;20063;-68
2024/03/21 10:36:04;;;;;;;10.95;7.38;;;11.80;99.90;;;;;;5093159;28;20016;-68
2024/03/21 10:38:31;;;;;;;13.35;8.15;;;11.80;1.00;;;;;;5093339;28;20024;-68
2024/03/21 10:41:01;;;;;;;14.77;9.10;;;11.70;1.00;;;;;;5093090;28;20040;-69
2024/03/21 10:43:30;;;;;;;15.48;9.02;;;11.90;1.00;;;;;;5093098;28;20483;-69
2024/03/21 10:45:56;;;;;;;17.05;8.50;;;11.60;1.00;;;;;;5093394;28;20426;-68
2024/03/21 10:48:30;;;;;;;13.73;9.05;;;11.70;1.00;;;;;;5093452;28;20062;-68
2024/03/21 10:50:56;;;;;;;13.05;8.07;;;11.80;1.00;;;;;;5093145;28;20020;-69
2024/03/21 10:53:22;;;;;;;10.55;7.50;;;11.80;99.90;;;;;;5093149;28;20107;-69
2024/03/21 10:55:50;;;;;;;13.20;7.60;;;11.90;99.90;;;;;;5092800;28;20031;-69
2024/03/21 10:58:18;;;;;;;13.65;7.28;;;11.90;99.90;;;;;;5093025;28;20031;-68
2024/03/21 11:00:53;;;;;;;11.43;6.40;;;12.00;99.90;;;;;;5093415;28;20035;-69
2024/03/21 11:03:19;;;;;;;12.25;6.30;;;12.10;99.90;;;;;;5092917;28;20541;-69
2024/03/21 11:05:48;;;;;;;7.85;5.90;;;12.10;99.90;;;;;;5093087;28;20052;-69
2024/03/21 11:08:30;;;;;;;11.43;6.60;;;12.20;99.90;;;;;;5093091;28;20025;-69
2024/03/21 11:10:57;;;;;;;6.78;5.65;;;12.40;99.90;;;;;;5093285;28;20024;-69
2024/03/21 11:13:24;;;;;;;9.73;5.15;;;13.20;1.00;;;;;;5092846;28;20027;-69
2024/03/21 11:15:54;;;;;;;8.32;4.97;;;13.60;31.50;;;;;;5093157;28;20109;-69
2024/03/21 11:18:20;;;;;;;8.70;5.22;;;13.50;99.90;;;;;;5093205;28;20032;-69
2024/03/21 11:20:46;;;;;;;13.43;7.55;;;13.60;1.00;;;;;;5093181;28;20367;-69
2024/03/21 11:23:14;;;;;;;14.40;6.95;;;13.00;99.90;;;;;;5092978;28;20482;-69
2024/03/21 11:25:39;;;;;;;12.13;7.03;;;12.80;1.00;;;;;;5092602;28;20021;-69
2024/03/21 11:28:09;;;;;;;12.02;7.18;;;12.60;99.90;;;;;;5093125;28;20602;-69
2024/03/21 11:30:34;;;;;;;13.20;6.75;;;12.60;99.90;;;;;;5092949;28;20116;-69
2024/03/21 11:33:00;;;;;;;12.77;6.75;;;12.60;99.90;;;;;;5093024;28;20031;-69
2024/03/21 11:35:27;;;;;;;10.13;6.10;;;12.60;31.80;;;;;;5092864;28;20028;-69
2024/03/21 11:37:52;;;;;;;11.38;5.95;;;12.50;99.90;;;;;;5092942;28;20028;-68
2024/03/21 11:40:18;;;;;;;11.27;5.70;;;12.40;99.90;;;;;;5094211;28;20051;-68
2024/03/21 11:42:44;;;;;;;10.02;5.88;;;12.30;51.80;;;;;;5096638;28;20055;-68
2024/03/21 11:45:14;;;;;;;9.15;5.28;;;12.20;99.90;;;;;;5096793;28;20028;-69
2024/03/21 11:47:40;;;;;;;8.57;5.50;;;12.10;99.90;;;;;;5096810;28;20024;-68
2024/03/21 11:50:06;;;;;;;11.38;5.68;;;12.10;17.50;;;;;;5096278;28;20031;-69
2024/03/21 11:52:31;;;;;;;10.02;5.85;;;12.10;1.00;;;;;;5096135;28;20028;-68
2024/03/21 11:54:57;;;;;;;13.68;5.72;;;12.20;1.00;;;;;;5096709;28;20024;-69
2024/03/21 11:57:22;;;;;;;9.02;5.47;;;12.10;99.90;;;;;;5096482;28;20035;-68
2024/03/21 11:59:49;;;;;;;11.10;5.70;;;12.30;99.90;;;;;;5096539;28;20057;-69
2024/03/21 12:02:17;;;;;;;10.90;5.05;;;12.60;99.90;;;;;;5096231;28;20056;-69
2024/03/21 12:04:43;;;;;;;13.55;6.13;;;12.40;28.60;;;;;;5096418;28;20028;-69
2024/03/21 12:07:11;;;;;;;10.93;6.07;;;12.10;99.90;;;;;;5096358;28;20026;-69
2024/03/21 12:09:36;;;;;;;13.82;6.90;;;12.00;1.00;;;;;;5096266;28;20114;-69
2024/03/21 12:12:02;;;;;;;13.27;6.60;;;12.00;1.00;;;;;;5096325;28;20071;-69
2024/03/21 12:14:28;;;;;;;11.27;6.40;;;11.70;99.90;;;;;;5096265;28;20393;-70
2024/03/21 12:16:53;;;;;;;11.57;6.22;;;11.90;99.90;;;;;;5095996;28;20107;-69
2024/03/21 12:19:19;;;;;;;11.25;5.50;;;11.80;1.00;;;;;;5096016;28;20111;-69
2024/03/21 12:21:45;;;;;;;10.48;5.60;;;12.00;99.90;;;;;;5095924;28;20028;-70
2024/03/21 12:24:10;;;;;;;9.98;5.03;;;12.40;99.90;;;;;;5096261;28;20390;-69
2024/03/21 12:26:35;;;;;;;8.60;5.78;;;12.20;99.90;;;;;;5095846;28;20016;-69
2024/03/21 12:29:01;;;;;;;8.02;5.60;;;12.30;1.00;;;;;;5095844;28;20024;-69
2024/03/21 12:31:27;;;;;;;8.90;5.78;;;12.40;1.00;;;;;;5095850;28;20032;-69
2024/03/21 12:33:56;;;;;;;11.63;6.13;;;12.40;1.00;;;;;;5095588;28;20024;-69